Time;durP1;ratioP1;P1;durP2;ratioP2;P2;SDS_P1;SDS_P2;PMS_P1;PMS_P2;Temp;Humidity;BMP_temperature;BMP_pressure;BME280_temperature;BME280_humidity;BME280_pressure;Samples;Min_cycle;Max_cycle;Signal;HPM_P1;HPM_P2
2021/12/08 00:00:27;;;;;;;30.77;14.40;;;;;;;0.67;79.48;99678.53;4848281;29;20042;-87
2021/12/08 00:02:55;;;;;;;29.83;15.00;;;;;;;0.95;79.47;99739.66;4835935;29;20088;-90
2021/12/08 00:05:22;;;;;;;30.58;16.23;;;;;;;0.81;79.46;99709.94;4827844;29;20069;-88
2021/12/08 00:07:50;;;;;;;32.42;17.50;;;;;;;0.84;79.51;99715.22;4833478;29;20065;-86
2021/12/08 00:13:04;;;;;;;32.30;16.33;;;;;;;0.83;80.06;99731.44;4833390;29;20058;-86
2021/12/08 00:15:47;;;;;;;30.85;16.25;;;;;;;0.65;79.58;99698.16;4838726;29;20042;-87
2021/12/08 00:18:17;;;;;;;31.05;16.30;;;;;;;0.78;79.56;99735.53;4849214;29;20046;-83
2021/12/08 00:20:46;;;;;;;29.33;15.85;;;;;;;0.69;79.74;99714.56;4849282;29;20058;-84
2021/12/08 00:23:15;;;;;;;31.02;15.82;;;;;;;0.76;79.63;99742.31;4835900;29;20056;-85
2021/12/08 00:25:43;;;;;;;30.75;15.10;;;;;;;0.64;79.65;99729.81;4826834;29;20058;-85
2021/12/08 00:28:11;;;;;;;29.35;15.27;;;;;;;0.65;79.53;99748.72;4827024;29;20054;-87
2021/12/08 00:30:40;;;;;;;28.38;14.45;;;;;;;0.60;79.83;99738.22;4825967;29;20050;-87
2021/12/08 00:33:08;;;;;;;31.02;15.38;;;;;;;0.70;79.89;99760.06;4826381;29;20063;-87
2021/12/08 00:35:38;;;;;;;31.33;15.43;;;;;;;0.65;79.91;99772.72;4826096;29;20055;-86
2021/12/08 00:38:05;;;;;;;26.83;14.77;;;;;;;0.57;79.49;99761.22;4835249;29;20582;-84
2021/12/08 00:40:32;;;;;;;27.88;14.10;;;;;;;0.61;79.86;99752.84;4827267;29;20076;-86
2021/12/08 00:43:00;;;;;;;29.70;14.52;;;;;;;0.68;79.75;99754.84;4825642;29;20050;-86
2021/12/08 00:45:29;;;;;;;28.33;13.48;;;;;;;0.58;79.87;99721.84;4825475;29;20069;-85
2021/12/08 00:47:57;;;;;;;25.77;14.30;;;;;;;0.75;79.56;99756.88;4825822;29;20058;-85
2021/12/08 00:50:27;;;;;;;27.58;14.43;;;;;;;0.58;79.50;99727.00;4825583;29;20422;-85
2021/12/08 00:52:54;;;;;;;28.75;14.77;;;;;;;0.72;79.34;99771.28;4825879;29;20439;-85
2021/12/08 00:55:21;;;;;;;27.30;14.10;;;;;;;0.72;79.56;99774.72;4823902;29;20054;-84
2021/12/08 00:57:49;;;;;;;27.30;14.27;;;;;;;0.68;79.25;99767.69;4825557;29;20061;-86
2021/12/08 01:00:29;;;;;;;30.48;15.68;;;;;;;0.70;79.48;99768.63;4825810;29;20114;-87
2021/12/08 01:02:58;;;;;;;27.85;14.98;;;;;;;0.43;79.41;99734.06;4826404;29;20187;-86
2021/12/08 01:05:29;;;;;;;27.63;14.77;;;;;;;0.64;78.94;99776.09;4826620;29;20062;-87
2021/12/08 01:07:56;;;;;;;27.25;14.00;;;;;;;0.49;79.11;99760.91;4826361;29;20059;-86
2021/12/08 01:10:27;;;;;;;28.38;14.77;;;;;;;0.45;79.38;99753.00;4825877;29;20495;-87
2021/12/08 01:13:05;;;;;;;27.85;14.75;;;;;;;0.45;79.33;99787.28;4832752;29;20114;-87
2021/12/08 01:15:34;;;;;;;28.73;14.43;;;;;;;0.19;79.36;99751.09;4831483;29;20079;-87
2021/12/08 01:18:01;;;;;;;28.77;14.65;;;;;;;0.29;78.99;99772.03;4829882;29;20150;-87
2021/12/08 01:20:28;;;;;;;29.65;14.52;;;;;;;0.20;79.10;99775.09;4824158;29;20119;-87
2021/12/08 01:22:55;;;;;;;29.23;15.02;;;;;;;0.17;79.25;99788.69;4825368;29;20066;-87
2021/12/08 01:25:22;;;;;;;29.08;14.45;;;;;;;0.13;79.41;99775.63;4825062;29;20106;-86
2021/12/08 01:27:49;;;;;;;34.33;15.48;;;;;;;0.13;79.01;99785.91;4824612;29;20113;-86
2021/12/08 01:30:16;;;;;;;29.92;15.63;;;;;;;0.10;79.61;99791.78;4825228;29;20054;-85
2021/12/08 01:32:43;;;;;;;31.98;15.48;;;;;;;0.14;79.20;99800.50;4823593;29;20093;-86
2021/12/08 01:35:11;;;;;;;31.02;16.67;;;;;;;0.19;79.24;99793.88;4825288;29;20084;-86
2021/12/08 01:37:39;;;;;;;27.20;14.15;;;;;;;0.15;79.24;99799.69;4825131;29;20062;-86
2021/12/08 01:40:10;;;;;;;31.27;15.18;;;;;;;-0.04;79.19;99780.03;4823410;29;20106;-86
2021/12/08 01:42:44;;;;;;;30.15;15.18;;;;;;;0.12;79.78;99803.00;4823403;29;20058;-87
2021/12/08 01:48:02;;;;;;;27.42;14.13;;;;;;;0.06;78.99;99823.28;4824609;29;20095;-86
2021/12/08 01:50:30;;;;;;;26.50;14.65;;;;;;;0.00;79.20;99812.75;4824913;29;20055;-84
2021/12/08 01:52:56;;;;;;;29.88;14.35;;;;;;;0.05;78.96;99818.09;4823908;29;20428;-86
2021/12/08 01:55:24;;;;;;;29.10;14.70;;;;;;;-0.08;79.06;99806.41;4825744;29;20062;-87
2021/12/08 01:57:51;;;;;;;27.75;14.52;;;;;;;0.02;79.00;99823.06;4827712;29;20055;-89
2021/12/08 02:00:33;;;;;;;24.85;13.27;;;;;;;-0.04;78.17;99811.72;4828073;29;20074;-89
2021/12/08 02:03:00;;;;;;;26.73;14.38;;;;;;;-0.04;78.52;99808.28;4829386;29;20104;-86
2021/12/08 02:05:28;;;;;;;25.33;13.77;;;;;;;-0.06;78.82;99817.63;4828148;29;20066;-86
2021/12/08 02:07:55;;;;;;;28.10;14.95;;;;;;;-0.11;78.42;99822.53;4827880;29;20512;-88
2021/12/08 02:10:23;;;;;;;23.67;13.07;;;;;;;-0.05;78.15;99827.94;4826897;29;20061;-88
2021/12/08 02:12:51;;;;;;;25.48;12.80;;;;;;;-0.24;77.79;99827.91;4812243;29;20081;-88
2021/12/08 02:15:20;;;;;;;27.45;14.05;;;;;;;-0.32;78.49;99814.75;4827318;29;20566;-89
2021/12/08 02:17:53;;;;;;;25.98;14.73;;;;;;;-0.38;78.27;99811.88;4828737;29;20069;-89
2021/12/08 02:20:27;;;;;;;24.25;13.15;;;;;;;-0.29;78.31;99837.09;4827720;29;20423;-88
2021/12/08 02:22:55;;;;;;;25.88;14.52;;;;;;;-0.48;78.16;99805.44;4827901;29;20058;-88
2021/12/08 02:25:24;;;;;;;26.42;14.07;;;;;;;-0.24;78.11;99836.53;4826071;29;20069;-88
2021/12/08 02:27:54;;;;;;;26.02;14.18;;;;;;;-0.47;78.06;99804.66;4785432;29;20513;-91
2021/12/08 02:30:34;;;;;;;27.27;13.73;;;;;;;-0.36;78.00;99843.66;4824040;29;20126;-90
2021/12/08 02:47:10;;;;;;;23.75;11.95;;;;;;;-0.63;77.72;99856.03;4827531;29;20053;-84
2021/12/08 02:49:38;;;;;;;25.58;13.10;;;;;;;-0.69;77.55;99859.22;4826434;29;20485;-84
2021/12/08 02:52:08;;;;;;;25.00;12.80;;;;;;;-0.66;78.03;99868.72;4827728;29;20062;-89
2021/12/08 02:54:43;;;;;;;;;;;;;;;-0.87;77.63;99859.19;4827486;29;20578;-90
2021/12/08 02:57:13;;;;;;;25.20;12.77;;;;;;;-0.98;77.75;99850.09;4827868;29;19929;-88
2021/12/08 02:59:41;;;;;;;23.30;12.52;;;;;;;-0.94;77.78;99856.25;4826388;29;20071;-86
2021/12/08 03:02:09;;;;;;;25.27;12.63;;;;;;;-1.07;77.71;99831.69;4829301;29;20064;-92
2021/12/08 03:04:37;;;;;;;21.70;12.45;;;;;;;-1.03;77.72;99851.56;4811546;29;20065;-87
2021/12/08 03:07:05;;;;;;;21.80;11.32;;;;;;;-1.15;77.69;99841.56;4829350;29;20069;-88
2021/12/08 03:09:33;;;;;;;22.98;12.60;;;;;;;-1.19;77.75;99849.03;4829042;29;20058;-90
2021/12/08 03:12:01;;;;;;;22.77;12.52;;;;;;;-1.01;77.57;99884.94;4828109;29;20058;-87
2021/12/08 03:14:30;;;;;;;21.17;11.25;;;;;;;-1.17;77.44;99876.50;4826402;29;20160;-87
2021/12/08 03:17:02;;;;;;;24.40;12.60;;;;;;;-1.07;77.70;99877.84;4825949;29;20063;-87
2021/12/08 03:19:31;;;;;;;22.67;11.32;;;;;;;-1.20;77.28;99865.22;4828053;29;20069;-86
2021/12/08 03:21:58;;;;;;;22.45;11.45;;;;;;;-1.18;77.22;99876.41;4827655;29;20062;-87
2021/12/08 03:24:30;;;;;;;22.92;12.10;;;;;;;-1.22;77.62;99869.41;4827719;29;20538;-90
2021/12/08 03:30:12;;;;;;;24.45;12.27;;;;;;;-1.34;76.98;99901.25;4826173;29;20085;-87
2021/12/08 03:32:40;;;;;;;24.80;12.73;;;;;;;-1.33;77.48;99897.91;4825976;29;20442;-87
2021/12/08 03:35:10;;;;;;;25.15;13.25;;;;;;;-1.19;77.03;99890.03;4825823;29;20796;-86
2021/12/08 03:37:41;;;;;;;25.80;13.13;;;;;;;-1.11;77.02;99884.50;4810566;29;20066;-86
2021/12/08 03:40:13;;;;;;;23.80;13.13;;;;;;;-1.11;77.33;99889.63;4826188;29;20062;-88
2021/12/08 03:42:41;;;;;;;26.88;13.48;;;;;;;-1.17;77.14;99897.00;4826808;29;20515;-89
2021/12/08 03:45:32;;;;;;;26.90;12.35;;;;;;;-1.17;77.22;99886.75;4828040;29;20534;-86
2021/12/08 03:48:06;;;;;;;25.42;13.43;;;;;;;-1.21;77.14;99879.69;4826461;29;20466;-86
2021/12/08 03:50:38;;;;;;;28.70;13.73;;;;;;;-1.18;77.20;99887.56;4826460;29;20157;-87
2021/12/08 03:53:07;;;;;;;24.48;13.23;;;;;;;-1.16;77.16;99900.44;4826817;29;20065;-86
2021/12/08 03:55:44;;;;;;;27.00;12.57;;;;;;;-1.19;76.82;99920.81;4826395;29;20099;-87
2021/12/08 03:58:12;;;;;;;28.48;12.63;;;;;;;-1.25;76.99;99919.69;4812641;29;20066;-88
2021/12/08 04:00:41;;;;;;;27.42;13.07;;;;;;;-1.23;77.16;99924.88;4829515;29;20066;-86
2021/12/08 04:03:08;;;;;;;25.50;13.20;;;;;;;-1.21;77.13;99928.41;4827115;29;20070;-87
2021/12/08 04:05:57;;;;;;;24.38;12.38;;;;;;;-1.23;76.71;99924.88;4826824;29;20531;-88
2021/12/08 04:08:31;;;;;;;25.83;13.18;;;;;;;-1.35;76.78;99927.72;4826708;29;20084;-88
2021/12/08 04:11:04;;;;;;;26.83;14.10;;;;;;;-1.31;76.89;99939.88;4826441;29;20054;-89
2021/12/08 04:13:48;;;;;;;26.42;14.23;;;;;;;-1.32;76.57;99947.47;4825639;29;20447;-88
2021/12/08 04:16:20;;;;;;;28.35;13.05;;;;;;;-1.35;76.66;99943.09;4826620;29;20066;-87
2021/12/08 04:18:48;;;;;;;24.75;12.57;;;;;;;-1.39;76.82;99940.28;4825366;29;20058;-88
2021/12/08 04:21:16;;;;;;;27.98;14.15;;;;;;;-1.49;77.33;99914.16;4827012;29;20061;-86
2021/12/08 04:23:44;;;;;;;29.33;13.38;;;;;;;-1.47;76.59;99935.63;4828033;29;20050;-86
2021/12/08 04:26:23;;;;;;;28.58;13.88;;;;;;;-1.51;77.18;99922.56;4826952;29;20160;-86
2021/12/08 04:28:52;;;;;;;31.33;15.18;;;;;;;-1.60;77.11;99915.28;4826926;29;20107;-91
2021/12/08 04:31:24;;;;;;;23.48;12.55;;;;;;;-1.40;76.86;99948.75;4828923;29;20058;-88
2021/12/08 04:33:59;;;;;;;27.38;13.80;;;;;;;-1.49;77.23;99955.16;4831166;29;20065;-90
2021/12/08 04:36:32;;;;;;;25.70;12.57;;;;;;;-1.42;76.86;99965.72;4829975;29;20058;-90
2021/12/08 04:39:04;;;;;;;27.52;14.88;;;;;;;-1.42;76.90;99951.22;4828901;29;20095;-89
2021/12/08 04:41:38;;;;;;;26.77;13.25;;;;;;;-1.51;76.85;99938.81;4827265;29;20115;-87
2021/12/08 04:44:33;;;;;;;29.83;14.23;;;;;;;-1.51;76.54;99953.31;4827021;29;20058;-87
2021/12/08 04:52:34;;;;;;;26.52;13.15;;;;;;;-1.50;76.40;99975.59;4825269;29;20431;-88
2021/12/08 05:04:07;;;;;;;29.90;15.30;;;;;;;-1.59;76.69;99978.56;4848832;29;20113;-91
2021/12/08 05:06:59;;;;;;;32.15;16.58;;;;;;;-2.02;76.95;99927.56;4835300;29;20122;-87
2021/12/08 05:09:30;;;;;;;27.10;14.18;;;;;;;-1.67;77.23;99988.38;4828710;29;20427;-88
2021/12/08 05:12:12;;;;;;;29.63;15.43;;;;;;;-2.01;77.12;99924.19;4826129;29;20438;-87
2021/12/08 05:14:48;;;;;;;27.77;14.25;;;;;;;-1.66;76.86;99977.34;4825852;29;20059;-90
2021/12/08 05:17:40;;;;;;;29.17;14.93;;;;;;;-1.74;76.72;99982.81;4824919;29;20584;-88
2021/12/08 05:20:18;;;;;;;27.08;14.55;;;;;;;-1.79;76.57;99997.06;4825962;29;20051;-87
2021/12/08 05:22:56;;;;;;;29.17;14.38;;;;;;;-1.78;77.20;99986.91;4823950;29;20054;-86
2021/12/08 05:25:27;;;;;;;29.55;15.02;;;;;;;-1.83;76.73;99970.41;4827808;29;20481;-86
2021/12/08 05:27:59;;;;;;;28.58;14.38;;;;;;;-1.73;76.73;99994.84;4824629;29;20427;-86
2021/12/08 05:30:29;;;;;;;29.88;15.30;;;;;;;-1.79;76.80;100000.50;4826618;29;20504;-84
2021/12/08 05:32:57;;;;;;;29.48;14.50;;;;;;;-1.86;76.75;99989.03;4826874;29;20512;-86
2021/12/08 05:35:27;;;;;;;30.02;15.02;;;;;;;-1.91;76.72;99990.47;4827867;29;20066;-85
2021/12/08 05:37:55;;;;;;;31.67;14.55;;;;;;;-1.91;76.86;100008.41;4832158;29;20042;-87
2021/12/08 05:40:29;;;;;;;30.33;15.85;;;;;;;-1.93;76.79;100007.44;4847360;29;20046;-88
2021/12/08 05:42:57;;;;;;;30.85;14.30;;;;;;;-1.92;76.87;100005.75;4846383;29;20054;-89
2021/12/08 05:45:25;;;;;;;31.88;16.00;;;;;;;-1.88;77.05;100013.69;4832090;29;20031;-89
2021/12/08 05:47:53;;;;;;;29.33;15.27;;;;;;;-1.88;76.52;100013.69;4847097;29;20058;-88
2021/12/08 05:50:39;;;;;;;31.27;15.65;;;;;;;-1.88;76.51;100030.72;4831446;29;20083;-90
2021/12/08 05:53:07;;;;;;;27.50;14.68;;;;;;;-2.34;76.29;99962.50;4834021;29;20058;-90
2021/12/08 05:55:35;;;;;;;33.85;16.63;;;;;;;-1.94;76.58;100040.63;4832807;29;20054;-90
2021/12/08 05:58:05;;;;;;;29.13;14.75;;;;;;;-1.89;76.24;100047.78;4832342;29;20115;-89
2021/12/08 06:00:46;;;;;;;33.20;16.13;;;;;;;-2.01;76.30;100046.22;4835025;29;20070;-87
2021/12/08 06:03:16;;;;;;;31.83;15.75;;;;;;;-2.04;76.69;100048.59;4833630;29;20114;-88
2021/12/08 06:05:46;;;;;;;29.75;14.52;;;;;;;-2.01;76.61;100059.88;4842419;29;20062;-89
2021/12/08 06:08:14;;;;;;;31.30;15.00;;;;;;;-2.03;76.25;100069.16;4846608;29;20134;-89
2021/12/08 06:10:42;;;;;;;31.63;14.05;;;;;;;-2.19;76.81;100041.81;4848555;23;20097;-90
2021/12/08 06:13:12;;;;;;;31.25;15.98;;;;;;;-2.04;76.58;100058.81;4828311;29;20106;-90
2021/12/08 06:15:42;;;;;;;30.23;15.45;;;;;;;-2.08;76.68;100065.47;4825094;29;20055;-90
2021/12/08 06:18:10;;;;;;;30.08;14.98;;;;;;;-2.09;76.37;100050.88;4827270;29;20165;-90
2021/12/08 06:20:38;;;;;;;32.30;16.42;;;;;;;-2.08;76.26;100047.53;4822155;29;20142;-88
2021/12/08 06:23:08;;;;;;;32.42;15.60;;;;;;;-2.27;76.37;100014.91;4798198;29;20062;-89
2021/12/08 06:25:37;;;;;;;31.73;15.43;;;;;;;-1.96;76.38;100062.69;4811705;29;20427;-89
2021/12/08 06:28:08;;;;;;;30.60;13.90;;;;;;;-1.97;76.19;100079.75;4808726;29;20416;-89
2021/12/08 06:30:39;;;;;;;29.63;14.82;;;;;;;-2.11;75.55;100076.41;4810239;29;20063;-90
2021/12/08 06:33:30;;;;;;;28.17;15.07;;;;;;;-2.21;76.03;100088.59;4785314;29;20055;-87
2021/12/08 06:36:03;;;;;;;30.50;14.80;;;;;;;-2.71;76.06;100049.91;4820223;29;20077;-84
2021/12/08 06:38:32;;;;;;;30.23;15.57;;;;;;;-2.42;76.24;100089.09;4837050;29;20038;-84
2021/12/08 06:41:08;;;;;;;35.28;16.75;;;;;;;-2.42;76.12;100103.59;4847164;29;20038;-82
2021/12/08 06:43:47;;;;;;;28.58;13.82;;;;;;;-2.48;76.25;100106.66;4850056;29;20112;-81
2021/12/08 06:46:15;;;;;;;35.03;16.77;;;;;;;-2.37;76.25;100115.84;4850208;29;20062;-82
2021/12/08 06:48:48;;;;;;;28.13;14.00;;;;;;;-2.44;75.52;100100.94;4849100;29;20034;-84
2021/12/08 06:51:32;;;;;;;29.13;13.68;;;;;;;-2.42;75.73;100104.47;4832936;29;20061;-83
2021/12/08 06:54:07;;;;;;;27.67;14.30;;;;;;;-2.38;75.78;100126.88;4833166;29;20053;-84
2021/12/08 06:56:38;;;;;;;30.50;14.10;;;;;;;-2.43;75.55;100114.59;4836938;29;20079;-85
2021/12/08 06:59:10;;;;;;;29.95;13.65;;;;;;;-2.66;75.34;100123.47;4836735;29;20054;-84
2021/12/08 07:01:58;;;;;;;28.83;14.88;;;;;;;-2.85;75.61;100104.44;4836441;29;20393;-85
2021/12/08 07:04:36;;;;;;;27.35;13.05;;;;;;;-2.65;75.65;100130.34;4832821;29;20083;-88
2021/12/08 07:07:18;;;;;;;29.50;15.07;;;;;;;-2.95;75.48;100103.00;4827808;29;20145;-88
2021/12/08 07:09:50;;;;;;;28.98;14.45;;;;;;;-2.85;75.74;100141.94;4798075;29;20101;-89
2021/12/08 07:12:25;;;;;;;31.30;13.95;;;;;;;-2.89;75.37;100134.06;4826678;29;20115;-87
2021/12/08 07:14:58;;;;;;;30.23;14.32;;;;;;;-2.96;75.78;100124.25;4832499;29;20117;-87
2021/12/08 07:17:29;;;;;;;28.65;13.80;;;;;;;-2.96;75.58;100143.81;4834337;29;20063;-87
2021/12/08 07:20:28;;;;;;;29.70;14.63;;;;;;;-2.95;75.74;100155.81;4832616;29;20149;-83
2021/12/08 07:23:02;;;;;;;31.05;14.38;;;;;;;-3.21;75.82;100114.19;4818132;29;20062;-85
2021/12/08 07:25:30;;;;;;;30.10;14.70;;;;;;;-2.88;76.06;100157.97;4820540;29;20050;-88
2021/12/08 07:27:58;;;;;;;30.15;14.40;;;;;;;-2.79;75.67;100162.75;4798018;29;20055;-89
2021/12/08 07:30:32;;;;;;;26.23;13.15;;;;;;;-2.81;75.62;100159.22;4822432;29;20054;-90
2021/12/08 07:33:00;;;;;;;27.77;12.95;;;;;;;-2.82;75.56;100150.66;4808263;29;20556;-87
2021/12/08 07:35:57;;;;;;;28.23;13.27;;;;;;;-2.81;75.36;100156.66;4778861;29;20416;-88
2021/12/08 07:38:28;;;;;;;25.90;12.90;;;;;;;-2.88;74.80;100168.19;4807714;29;20062;-86
2021/12/08 07:41:15;;;;;;;27.55;13.38;;;;;;;-2.96;75.18;100154.94;4809167;29;20063;-86
2021/12/08 07:43:48;;;;;;;28.38;13.70;;;;;;;-2.90;75.41;100152.75;4794832;29;20055;-85
2021/12/08 07:46:23;;;;;;;24.83;12.15;;;;;;;-3.03;75.17;100124.69;4807905;29;20090;-85
2021/12/08 07:48:56;;;;;;;29.48;13.82;;;;;;;-3.08;75.26;100120.94;4810620;29;20051;-85
2021/12/08 07:51:43;;;;;;;32.05;15.65;;;;;;;-3.13;75.19;100113.00;4810901;29;20063;-87
2021/12/08 07:54:11;;;;;;;26.15;13.65;;;;;;;-2.89;75.11;100140.84;4808707;29;20065;-87
2021/12/08 07:56:44;;;;;;;28.45;13.50;;;;;;;-2.91;75.02;100143.31;4808878;29;20424;-84
2021/12/08 07:59:15;;;;;;;28.92;14.07;;;;;;;-2.91;74.63;100157.75;4801050;29;20058;-87
2021/12/08 08:01:46;;;;;;;28.52;13.25;;;;;;;-2.98;74.93;100156.50;4811766;29;20054;-87
2021/12/08 08:04:17;;;;;;;26.50;13.18;;;;;;;-3.19;74.79;100153.50;4808165;29;20480;-87
2021/12/08 08:06:48;;;;;;;28.52;13.27;;;;;;;-3.17;74.98;100157.03;4818474;29;20067;-89
2021/12/08 08:09:24;;;;;;;24.27;11.80;;;;;;;-3.21;75.07;100157.63;4806163;29;20058;-87
2021/12/08 08:11:57;;;;;;;28.83;13.27;;;;;;;-3.11;74.77;100177.00;4807167;29;20063;-86
2021/12/08 08:14:29;;;;;;;23.52;10.98;;;;;;;-3.16;74.61;100174.16;4811634;29;20059;-86
2021/12/08 08:16:59;;;;;;;24.85;12.13;;;;;;;-3.31;74.93;100163.84;4809097;29;20070;-87
2021/12/08 08:19:30;;;;;;;26.97;12.37;;;;;;;-3.34;75.29;100176.41;4807408;29;20054;-87
2021/12/08 08:22:07;;;;;;;31.20;13.48;;;;;;;-3.30;75.11;100187.72;4806568;29;20058;-86
2021/12/08 08:24:35;;;;;;;25.88;11.77;;;;;;;-3.44;75.54;100175.72;4807677;29;20065;-83
2021/12/08 08:27:05;;;;;;;27.67;12.48;;;;;;;-3.77;75.48;100134.47;4807652;29;20477;-84
2021/12/08 08:29:33;;;;;;;26.63;11.73;;;;;;;-3.53;75.26;100186.22;4808429;29;20435;-85
2021/12/08 08:32:05;;;;;;;24.63;12.35;;;;;;;-3.54;75.00;100182.81;4807685;29;20055;-86
2021/12/08 08:34:37;;;;;;;26.98;12.43;;;;;;;-3.58;75.11;100173.16;4809024;29;20063;-85
2021/12/08 08:37:08;;;;;;;25.95;11.95;;;;;;;-3.64;74.84;100156.56;4807739;29;20063;-87
2021/12/08 08:39:39;;;;;;;28.67;12.52;;;;;;;-3.38;75.19;100178.66;4810159;29;20090;-88
2021/12/08 08:42:38;;;;;;;25.77;12.05;;;;;;;-3.48;74.69;100160.97;4817333;29;20425;-88
2021/12/08 08:45:24;;;;;;;26.40;12.50;;;;;;;-3.81;74.92;100165.69;4804866;29;20059;-85
2021/12/08 08:48:01;;;;;;;26.52;12.20;;;;;;;-3.71;75.34;100189.38;4807002;29;20104;-84
2021/12/08 08:50:38;;;;;;;26.50;11.52;;;;;;;-3.69;75.22;100201.38;4806769;29;20063;-83
2021/12/08 08:53:07;;;;;;;28.75;12.93;;;;;;;-3.85;75.46;100190.16;4807377;29;20055;-84
2021/12/08 08:55:57;;;;;;;26.17;12.35;;;;;;;-3.87;75.45;100158.53;4805926;29;20071;-82
2021/12/08 08:58:29;;;;;;;25.27;11.45;;;;;;;-3.84;75.60;100171.47;4806116;29;20080;-83
2021/12/08 09:01:07;;;;;;;28.55;12.95;;;;;;;-3.71;75.58;100198.69;4806829;29;20058;-84
2021/12/08 09:03:43;;;;;;;26.05;11.93;;;;;;;-3.78;75.42;100168.47;4807433;29;20063;-84
2021/12/08 09:06:14;;;;;;;31.67;13.30;;;;;;;-3.71;75.48;100171.50;4790636;29;20093;-85
2021/12/08 09:08:43;;;;;;;27.73;12.65;;;;;;;-3.76;74.98;100149.03;4805375;29;20063;-81
2021/12/08 09:11:22;;;;;;;27.88;12.63;;;;;;;-3.73;74.88;100157.75;4805918;29;20070;-85
2021/12/08 09:14:15;;;;;;;26.33;11.55;;;;;;;-3.78;75.18;100161.69;4808667;29;20130;-85
2021/12/08 09:16:47;;;;;;;27.48;11.60;;;;;;;-3.65;75.36;100185.47;4807784;29;20054;-84
2021/12/08 09:19:27;;;;;;;28.15;12.32;;;;;;;-3.83;75.45;100159.59;4808387;29;20107;-86
2021/12/08 09:22:00;;;;;;;30.80;13.07;;;;;;;-3.55;75.20;100190.34;4809559;29;20047;-83
2021/12/08 09:25:06;;;;;;;29.95;12.07;;;;;;;-3.56;75.54;100188.59;4807425;29;20055;-85
2021/12/08 09:27:39;;;;;;;31.70;13.32;;;;;;;-3.61;75.34;100184.88;4808504;29;20153;-85
2021/12/08 09:30:17;;;;;;;30.73;13.02;;;;;;;-3.58;74.98;100159.53;4809556;29;20436;-85
2021/12/08 09:32:51;;;;;;;27.98;12.25;;;;;;;-3.46;75.10;100188.41;4806960;29;20149;-84
2021/12/08 09:35:41;;;;;;;;;;;;;;;;;;;;;
2021/12/08 09:38:34;;;;;;;30.85;13.55;;;;;;;-3.46;75.38;100192.63;4811653;29;20057;-85
2021/12/08 09:41:08;;;;;;;30.58;14.80;;;;;;;-3.40;75.18;100186.25;4812054;29;20059;-83
2021/12/08 09:43:50;;;;;;;27.85;13.32;;;;;;;-3.45;75.06;100189.28;4816320;29;20157;-84
2021/12/08 09:46:24;;;;;;;28.83;12.50;;;;;;;-3.47;75.76;100196.84;4825796;29;20054;-85
2021/12/08 09:48:52;;;;;;;30.15;12.75;;;;;;;-3.44;74.93;100197.06;4825780;29;20650;-85
2021/12/08 09:51:24;;;;;;;30.65;13.07;;;;;;;-3.55;74.93;100196.38;4805853;29;20055;-85
2021/12/08 09:53:52;;;;;;;32.00;13.25;;;;;;;-3.54;74.98;100197.25;4809958;29;20066;-86
2021/12/08 09:56:22;;;;;;;26.83;12.75;;;;;;;-3.49;75.01;100188.19;4808085;29;20467;-86
2021/12/08 09:58:53;;;;;;;26.65;12.38;;;;;;;-3.58;75.47;100191.03;4807220;29;20496;-87
2021/12/08 10:01:22;;;;;;;27.55;12.90;;;;;;;-3.64;75.00;100177.88;4807843;29;20057;-86
2021/12/08 10:03:53;;;;;;;28.63;12.02;;;;;;;-3.54;75.13;100181.91;4809716;29;20111;-85
2021/12/08 10:06:28;;;;;;;28.80;12.73;;;;;;;-3.44;74.90;100194.50;4803969;29;20058;-85
2021/12/08 10:08:57;;;;;;;30.50;13.77;;;;;;;-3.62;74.88;100176.31;4825474;29;20538;-87
2021/12/08 10:11:34;;;;;;;31.23;13.35;;;;;;;-3.48;75.08;100204.41;4811030;29;20111;-85
2021/12/08 10:14:04;;;;;;;29.83;12.93;;;;;;;-3.70;75.20;100190.25;4823963;29;20501;-85
2021/12/08 10:16:33;;;;;;;29.02;13.98;;;;;;;-3.61;74.90;100195.97;4807846;29;20161;-84
2021/12/08 10:19:01;;;;;;;30.60;13.43;;;;;;;-3.57;74.86;100199.59;4826955;29;20476;-83
2021/12/08 10:21:41;;;;;;;31.52;13.38;;;;;;;-3.79;74.92;100164.13;4827455;29;20460;-85
2021/12/08 10:24:31;;;;;;;32.78;13.73;;;;;;;-4.02;74.84;100125.22;4811961;29;20058;-84
2021/12/08 10:27:08;;;;;;;30.45;13.25;;;;;;;-3.56;75.12;100186.91;4827859;29;20082;-84
2021/12/08 10:29:35;;;;;;;36.33;14.18;;;;;;;-3.66;74.80;100161.56;4826293;29;20055;-85
2021/12/08 10:32:04;;;;;;;39.22;16.23;;;;;;;-3.50;74.58;100174.56;4826410;29;20062;-85
2021/12/08 10:34:47;;;;;;;31.25;12.57;;;;;;;-3.64;74.66;100165.09;4828089;29;20054;-85
2021/12/08 10:37:20;;;;;;;36.20;17.30;;;;;;;-3.46;74.67;100190.06;4827614;29;20066;-83
2021/12/08 10:39:52;;;;;;;35.40;14.50;;;;;;;-3.54;74.14;100181.91;4826294;29;20054;-85
2021/12/08 10:42:26;;;;;;;34.63;15.38;;;;;;;-3.22;73.75;100213.75;4827494;29;20111;-85
2021/12/08 10:45:08;;;;;;;35.67;15.50;;;;;;;-3.33;73.99;100224.19;4828441;29;20474;-85
2021/12/08 10:47:49;;;;;;;39.83;16.75;;;;;;;-3.28;74.50;100229.56;4827355;29;20115;-84
2021/12/08 10:56:24;;;;;;;35.03;14.38;;;;;;;-3.13;73.59;100197.31;4826055;29;20138;-84
2021/12/08 10:58:58;;;;;;;35.25;14.82;;;;;;;-3.03;73.39;100220.91;4827521;29;20085;-84
2021/12/08 11:01:26;;;;;;;36.33;16.90;;;;;;;-3.11;73.58;100207.66;4826179;29;20066;-86
2021/12/08 11:04:04;;;;;;;35.60;16.05;;;;;;;-3.22;73.25;100186.53;4827266;29;20470;-86
2021/12/08 11:06:34;;;;;;;36.45;14.63;;;;;;;-3.09;73.26;100212.06;4827553;29;20066;-86
2021/12/08 11:09:06;;;;;;;36.97;15.13;;;;;;;-3.18;73.42;100192.72;4829796;29;20477;-87
2021/12/08 11:11:43;;;;;;;38.50;15.90;;;;;;;-3.31;73.39;100184.28;4826319;29;20059;-88
2021/12/08 11:14:14;;;;;;;37.90;15.73;;;;;;;-3.18;73.28;100223.41;4835207;29;20081;-86
2021/12/08 11:16:44;;;;;;;42.92;15.60;;;;;;;-3.23;73.66;100219.66;4828448;29;20642;-85
2021/12/08 11:19:18;;;;;;;38.25;16.52;;;;;;;-3.33;73.31;100213.06;4827206;29;20061;-83
2021/12/08 11:21:48;;;;;;;39.20;15.30;;;;;;;-3.46;73.08;100195.16;4827037;29;20070;-86
2021/12/08 11:24:32;;;;;;;38.45;16.23;;;;;;;-3.36;73.54;100225.63;4826579;29;20095;-86
2021/12/08 11:27:06;;;;;;;42.35;18.95;;;;;;;-3.30;73.60;100229.47;4833666;29;20093;-88
2021/12/08 11:29:37;;;;;;;36.20;15.27;;;;;;;-3.33;72.88;100216.50;4827746;29;20082;-85
2021/12/08 11:32:10;;;;;;;31.02;13.32;;;;;;;-3.46;73.14;100190.97;4812745;29;20059;-85
2021/12/08 11:34:39;;;;;;;31.88;13.75;;;;;;;-3.50;73.23;100217.09;4804398;29;20138;-86
2021/12/08 11:37:08;;;;;;;34.30;14.32;;;;;;;-3.48;73.40;100202.75;4803600;29;20505;-87
2021/12/08 11:39:41;;;;;;;32.45;13.43;;;;;;;-3.50;72.68;100205.19;4798930;29;20055;-84
2021/12/08 11:42:16;;;;;;;31.85;12.70;;;;;;;-3.85;72.53;100190.16;4800527;29;20081;-85
2021/12/08 11:45:01;;;;;;;36.60;13.60;;;;;;;-3.66;72.84;100247.50;4764944;29;20054;-80
2021/12/08 11:47:34;;;;;;;29.13;11.93;;;;;;;-3.91;72.48;100218.69;4802916;29;20126;-85
2021/12/08 11:50:11;;;;;;;31.95;12.48;;;;;;;-3.94;72.54;100238.94;4797639;29;20541;-83
2021/12/08 11:52:39;;;;;;;33.08;14.05;;;;;;;-4.05;72.69;100239.84;4799473;29;20063;-84
2021/12/08 11:55:07;;;;;;;31.30;11.23;;;;;;;-4.10;72.94;100248.88;4799153;29;20140;-84
2021/12/08 11:57:37;;;;;;;31.67;14.70;;;;;;;-4.23;72.76;100230.97;4810146;29;20070;-83
2021/12/08 12:00:04;;;;;;;30.05;12.45;;;;;;;-4.16;72.68;100239.13;4798437;29;20065;-84
2021/12/08 12:02:58;;;;;;;33.78;13.15;;;;;;;-4.29;72.85;100249.28;4798030;29;20066;-82
2021/12/08 12:05:36;;;;;;;27.90;11.52;;;;;;;-4.34;72.97;100253.19;4798694;29;20145;-84
2021/12/08 12:08:08;;;;;;;29.48;12.77;;;;;;;-4.54;72.99;100249.25;4799134;29;20055;-83
2021/12/08 12:10:39;;;;;;;32.45;12.55;;;;;;;-4.48;73.22;100254.78;4798248;29;20065;-83
2021/12/08 12:13:25;;;;;;;32.08;12.98;;;;;;;-4.44;73.07;100266.09;4798561;29;20051;-84
2021/12/08 12:15:53;;;;;;;31.92;12.57;;;;;;;-4.45;73.09;100266.84;4799361;29;20055;-83
2021/12/08 12:18:22;;;;;;;33.78;13.18;;;;;;;-4.58;72.81;100265.09;4796709;29;20066;-83
2021/12/08 12:21:20;;;;;;;31.10;11.85;;;;;;;-4.56;72.69;100277.22;4794959;29;20058;-84
2021/12/08 12:24:30;;;;;;;33.38;12.35;;;;;;;-4.50;73.00;100271.63;4797500;29;20078;-85